sensor_id;sensor_type;location;lat;lon;timestamp;P1;durP1;ratioP1;P2;durP2;ratioP2
16662;SDS011;8445;51.270;9.434;2023-10-09T00:01:49;6.40;;;6.00;;
16662;SDS011;8445;51.270;9.434;2023-10-09T00:04:20;6.50;;;6.00;;
16662;SDS011;8445;51.270;9.434;2023-10-09T00:06:46;6.65;;;6.15;;
16662;SDS011;8445;51.270;9.434;2023-10-09T00:09:12;6.80;;;6.20;;
16662;SDS011;8445;51.270;9.434;2023-10-09T00:11:49;7.15;;;6.55;;
16662;SDS011;8445;51.270;9.434;2023-10-09T00:14:23;9.27;;;6.32;;
16662;SDS011;8445;51.270;9.434;2023-10-09T00:16:56;7.18;;;6.55;;
16662;SDS011;8445;51.270;9.434;2023-10-09T00:19:37;6.72;;;6.30;;
16662;SDS011;8445;51.270;9.434;2023-10-09T00:22:03;7.20;;;6.50;;
16662;SDS011;8445;51.270;9.434;2023-10-09T00:24:33;6.88;;;6.28;;
16662;SDS011;8445;51.270;9.434;2023-10-09T00:26:59;6.90;;;6.40;;
16662;SDS011;8445;51.270;9.434;2023-10-09T00:29:38;7.95;;;6.43;;
16662;SDS011;8445;51.270;9.434;2023-10-09T00:32:10;10.30;;;6.80;;
16662;SDS011;8445;51.270;9.434;2023-10-09T00:34:52;6.70;;;6.10;;
16662;SDS011;8445;51.270;9.434;2023-10-09T00:37:23;7.43;;;6.78;;
16662;SDS011;8445;51.270;9.434;2023-10-09T00:39:51;6.72;;;6.10;;
16662;SDS011;8445;51.270;9.434;2023-10-09T00:42:22;7.07;;;6.43;;
16662;SDS011;8445;51.270;9.434;2023-10-09T00:45:01;10.75;;;6.70;;
16662;SDS011;8445;51.270;9.434;2023-10-09T00:47:31;7.45;;;6.75;;
16662;SDS011;8445;51.270;9.434;2023-10-09T00:52:41;7.30;;;6.70;;
16662;SDS011;8445;51.270;9.434;2023-10-09T00:55:17;9.07;;;7.20;;
16662;SDS011;8445;51.270;9.434;2023-10-09T00:58:03;7.22;;;6.57;;
16662;SDS011;8445;51.270;9.434;2023-10-09T01:00:41;7.28;;;6.55;;
16662;SDS011;8445;51.270;9.434;2023-10-09T01:03:11;9.93;;;6.28;;
16662;SDS011;8445;51.270;9.434;2023-10-09T01:05:42;8.77;;;6.30;;
16662;SDS011;8445;51.270;9.434;2023-10-09T01:08:20;7.53;;;6.25;;
16662;SDS011;8445;51.270;9.434;2023-10-09T01:11:14;6.93;;;6.22;;
16662;SDS011;8445;51.270;9.434;2023-10-09T01:13:47;8.23;;;6.60;;
16662;SDS011;8445;51.270;9.434;2023-10-09T01:16:19;9.43;;;6.68;;
16662;SDS011;8445;51.270;9.434;2023-10-09T01:18:51;8.50;;;6.45;;
16662;SDS011;8445;51.270;9.434;2023-10-09T01:21:22;9.38;;;6.82;;
16662;SDS011;8445;51.270;9.434;2023-10-09T01:23:49;7.18;;;6.47;;
16662;SDS011;8445;51.270;9.434;2023-10-09T01:26:25;7.70;;;6.93;;
16662;SDS011;8445;51.270;9.434;2023-10-09T01:28:51;8.57;;;6.70;;
16662;SDS011;8445;51.270;9.434;2023-10-09T01:31:23;7.43;;;6.50;;
16662;SDS011;8445;51.270;9.434;2023-10-09T01:33:52;7.70;;;7.00;;
16662;SDS011;8445;51.270;9.434;2023-10-09T01:36:19;7.80;;;6.75;;
16662;SDS011;8445;51.270;9.434;2023-10-09T01:38:58;7.85;;;6.70;;
16662;SDS011;8445;51.270;9.434;2023-10-09T01:41:31;10.65;;;6.60;;
16662;SDS011;8445;51.270;9.434;2023-10-09T01:44:00;10.93;;;6.78;;
16662;SDS011;8445;51.270;9.434;2023-10-09T01:46:35;10.55;;;7.25;;
16662;SDS011;8445;51.270;9.434;2023-10-09T01:49:01;11.60;;;7.28;;
16662;SDS011;8445;51.270;9.434;2023-10-09T01:51:34;8.02;;;7.22;;
16662;SDS011;8445;51.270;9.434;2023-10-09T01:54:02;13.88;;;6.68;;
16662;SDS011;8445;51.270;9.434;2023-10-09T01:56:28;7.93;;;7.13;;
16662;SDS011;8445;51.270;9.434;2023-10-09T01:58:54;9.65;;;6.88;;
16662;SDS011;8445;51.270;9.434;2023-10-09T02:01:27;9.85;;;7.47;;
16662;SDS011;8445;51.270;9.434;2023-10-09T02:03:53;11.38;;;7.38;;
16662;SDS011;8445;51.270;9.434;2023-10-09T02:06:19;10.48;;;7.68;;
16662;SDS011;8445;51.270;9.434;2023-10-09T02:08:52;8.23;;;7.30;;
16662;SDS011;8445;51.270;9.434;2023-10-09T02:11:19;11.52;;;7.25;;
16662;SDS011;8445;51.270;9.434;2023-10-09T02:14:00;13.77;;;8.18;;
16662;SDS011;8445;51.270;9.434;2023-10-09T02:16:44;8.65;;;7.85;;
16662;SDS011;8445;51.270;9.434;2023-10-09T02:19:32;12.77;;;8.40;;
16662;SDS011;8445;51.270;9.434;2023-10-09T02:22:00;13.02;;;8.60;;
16662;SDS011;8445;51.270;9.434;2023-10-09T02:24:45;12.75;;;8.75;;
16662;SDS011;8445;51.270;9.434;2023-10-09T02:27:14;15.57;;;8.32;;
16662;SDS011;8445;51.270;9.434;2023-10-09T02:30:04;8.73;;;7.88;;
16662;SDS011;8445;51.270;9.434;2023-10-09T02:32:41;14.68;;;8.50;;
16662;SDS011;8445;51.270;9.434;2023-10-09T02:35:11;11.68;;;8.55;;
16662;SDS011;8445;51.270;9.434;2023-10-09T02:37:53;12.07;;;8.13;;
16662;SDS011;8445;51.270;9.434;2023-10-09T02:40:26;13.02;;;9.13;;
16662;SDS011;8445;51.270;9.434;2023-10-09T02:42:58;12.82;;;8.73;;
16662;SDS011;8445;51.270;9.434;2023-10-09T02:45:24;11.15;;;8.82;;
16662;SDS011;8445;51.270;9.434;2023-10-09T02:47:50;17.48;;;9.55;;
16662;SDS011;8445;51.270;9.434;2023-10-09T02:50:16;12.10;;;9.60;;
16662;SDS011;8445;51.270;9.434;2023-10-09T02:52:49;11.55;;;9.85;;
16662;SDS011;8445;51.270;9.434;2023-10-09T02:55:24;19.38;;;9.90;;
16662;SDS011;8445;51.270;9.434;2023-10-09T02:57:55;13.98;;;9.68;;
16662;SDS011;8445;51.270;9.434;2023-10-09T03:00:38;14.52;;;9.90;;
16662;SDS011;8445;51.270;9.434;2023-10-09T03:03:05;12.38;;;10.05;;
16662;SDS011;8445;51.270;9.434;2023-10-09T03:05:32;11.00;;;9.05;;
16662;SDS011;8445;51.270;9.434;2023-10-09T03:07:58;17.17;;;10.27;;
16662;SDS011;8445;51.270;9.434;2023-10-09T03:10:24;17.27;;;10.10;;
16662;SDS011;8445;51.270;9.434;2023-10-09T03:12:51;11.52;;;9.88;;
16662;SDS011;8445;51.270;9.434;2023-10-09T03:15:21;14.27;;;8.98;;
16662;SDS011;8445;51.270;9.434;2023-10-09T03:17:47;12.15;;;9.65;;
16662;SDS011;8445;51.270;9.434;2023-10-09T03:20:15;15.18;;;10.45;;
16662;SDS011;8445;51.270;9.434;2023-10-09T03:22:45;11.75;;;9.13;;
16662;SDS011;8445;51.270;9.434;2023-10-09T03:25:12;13.65;;;9.55;;
16662;SDS011;8445;51.270;9.434;2023-10-09T03:27:42;11.10;;;9.52;;
16662;SDS011;8445;51.270;9.434;2023-10-09T03:30:15;12.85;;;10.30;;
16662;SDS011;8445;51.270;9.434;2023-10-09T03:32:51;12.52;;;10.07;;
16662;SDS011;8445;51.270;9.434;2023-10-09T03:35:19;19.95;;;9.35;;
16662;SDS011;8445;51.270;9.434;2023-10-09T03:37:54;10.57;;;9.38;;
16662;SDS011;8445;51.270;9.434;2023-10-09T03:40:25;11.90;;;8.82;;
16662;SDS011;8445;51.270;9.434;2023-10-09T03:42:52;10.73;;;9.63;;
16662;SDS011;8445;51.270;9.434;2023-10-09T03:45:19;12.07;;;8.45;;
16662;SDS011;8445;51.270;9.434;2023-10-09T03:47:52;11.70;;;8.73;;
16662;SDS011;8445;51.270;9.434;2023-10-09T03:50:41;13.95;;;9.18;;
16662;SDS011;8445;51.270;9.434;2023-10-09T03:53:08;12.73;;;9.82;;
16662;SDS011;8445;51.270;9.434;2023-10-09T03:55:38;9.25;;;7.85;;
16662;SDS011;8445;51.270;9.434;2023-10-09T03:58:06;13.90;;;9.77;;
16662;SDS011;8445;51.270;9.434;2023-10-09T04:00:34;11.18;;;9.02;;
16662;SDS011;8445;51.270;9.434;2023-10-09T04:03:10;13.70;;;9.13;;
16662;SDS011;8445;51.270;9.434;2023-10-09T04:05:37;12.57;;;9.18;;
16662;SDS011;8445;51.270;9.434;2023-10-09T04:08:06;10.73;;;8.40;;
16662;SDS011;8445;51.270;9.434;2023-10-09T04:10:39;10.30;;;8.25;;
16662;SDS011;8445;51.270;9.434;2023-10-09T04:13:17;10.77;;;9.68;;
16662;SDS011;8445;51.270;9.434;2023-10-09T04:15:49;9.27;;;8.38;;
16662;SDS011;8445;51.270;9.434;2023-10-09T04:18:18;11.57;;;9.02;;
16662;SDS011;8445;51.270;9.434;2023-10-09T04:20:45;13.00;;;8.65;;
16662;SDS011;8445;51.270;9.434;2023-10-09T04:23:29;9.52;;;8.48;;
16662;SDS011;8445;51.270;9.434;2023-10-09T04:26:21;10.20;;;8.95;;
16662;SDS011;8445;51.270;9.434;2023-10-09T04:28:50;12.15;;;9.48;;
16662;SDS011;8445;51.270;9.434;2023-10-09T04:31:19;10.70;;;8.60;;
16662;SDS011;8445;51.270;9.434;2023-10-09T04:33:47;10.77;;;8.98;;
16662;SDS011;8445;51.270;9.434;2023-10-09T04:36:39;11.18;;;9.23;;
16662;SDS011;8445;51.270;9.434;2023-10-09T04:39:22;13.35;;;9.20;;
16662;SDS011;8445;51.270;9.434;2023-10-09T04:41:54;15.13;;;8.60;;
16662;SDS011;8445;51.270;9.434;2023-10-09T04:44:39;12.73;;;9.25;;
16662;SDS011;8445;51.270;9.434;2023-10-09T04:47:27;11.85;;;9.43;;
16662;SDS011;8445;51.270;9.434;2023-10-09T04:50:07;12.00;;;8.95;;
16662;SDS011;8445;51.270;9.434;2023-10-09T04:52:44;15.25;;;8.88;;
16662;SDS011;8445;51.270;9.434;2023-10-09T04:55:10;11.63;;;9.55;;
16662;SDS011;8445;51.270;9.434;2023-10-09T04:57:37;10.15;;;9.07;;
16662;SDS011;8445;51.270;9.434;2023-10-09T05:00:10;17.13;;;10.20;;
16662;SDS011;8445;51.270;9.434;2023-10-09T05:05:36;19.42;;;10.23;;
16662;SDS011;8445;51.270;9.434;2023-10-09T05:08:14;12.52;;;9.80;;
16662;SDS011;8445;51.270;9.434;2023-10-09T05:11:03;13.32;;;9.18;;
16662;SDS011;8445;51.270;9.434;2023-10-09T05:13:33;13.75;;;9.85;;
16662;SDS011;8445;51.270;9.434;2023-10-09T05:19:03;15.65;;;9.82;;
16662;SDS011;8445;51.270;9.434;2023-10-09T05:24:09;13.55;;;10.35;;
16662;SDS011;8445;51.270;9.434;2023-10-09T05:26:37;12.95;;;9.73;;
16662;SDS011;8445;51.270;9.434;2023-10-09T05:29:10;12.07;;;10.18;;
16662;SDS011;8445;51.270;9.434;2023-10-09T05:31:49;12.63;;;9.52;;
16662;SDS011;8445;51.270;9.434;2023-10-09T05:34:25;16.70;;;10.50;;
16662;SDS011;8445;51.270;9.434;2023-10-09T05:37:10;15.25;;;10.00;;
16662;SDS011;8445;51.270;9.434;2023-10-09T05:39:54;15.88;;;10.30;;
16662;SDS011;8445;51.270;9.434;2023-10-09T05:42:27;13.60;;;10.00;;
16662;SDS011;8445;51.270;9.434;2023-10-09T05:45:10;12.63;;;10.65;;
16662;SDS011;8445;51.270;9.434;2023-10-09T05:47:42;16.83;;;11.77;;
16662;SDS011;8445;51.270;9.434;2023-10-09T05:50:19;20.08;;;11.30;;
16662;SDS011;8445;51.270;9.434;2023-10-09T05:53:03;11.95;;;10.30;;
16662;SDS011;8445;51.270;9.434;2023-10-09T05:55:30;14.10;;;11.25;;
16662;SDS011;8445;51.270;9.434;2023-10-09T05:58:21;12.73;;;10.20;;
16662;SDS011;8445;51.270;9.434;2023-10-09T06:01:05;15.15;;;9.68;;
16662;SDS011;8445;51.270;9.434;2023-10-09T06:03:49;16.42;;;9.80;;
16662;SDS011;8445;51.270;9.434;2023-10-09T06:06:29;15.63;;;9.73;;
16662;SDS011;8445;51.270;9.434;2023-10-09T06:09:02;12.70;;;8.90;;
16662;SDS011;8445;51.270;9.434;2023-10-09T06:14:13;14.18;;;8.93;;
16662;SDS011;8445;51.270;9.434;2023-10-09T06:16:53;8.18;;;6.55;;
16662;SDS011;8445;51.270;9.434;2023-10-09T06:19:22;12.68;;;9.05;;
16662;SDS011;8445;51.270;9.434;2023-10-09T06:21:53;12.32;;;8.75;;
16662;SDS011;8445;51.270;9.434;2023-10-09T06:24:40;12.23;;;9.50;;
16662;SDS011;8445;51.270;9.434;2023-10-09T06:27:07;10.05;;;8.63;;
16662;SDS011;8445;51.270;9.434;2023-10-09T06:29:43;11.52;;;8.60;;
16662;SDS011;8445;51.270;9.434;2023-10-09T06:32:10;15.02;;;8.82;;
16662;SDS011;8445;51.270;9.434;2023-10-09T06:34:47;12.75;;;9.30;;
16662;SDS011;8445;51.270;9.434;2023-10-09T06:37:25;9.57;;;8.43;;
16662;SDS011;8445;51.270;9.434;2023-10-09T06:39:51;11.48;;;8.82;;
16662;SDS011;8445;51.270;9.434;2023-10-09T06:42:25;14.07;;;8.90;;
16662;SDS011;8445;51.270;9.434;2023-10-09T06:44:56;10.23;;;8.57;;
16662;SDS011;8445;51.270;9.434;2023-10-09T06:47:33;12.05;;;9.10;;
16662;SDS011;8445;51.270;9.434;2023-10-09T06:50:15;11.90;;;8.45;;
16662;SDS011;8445;51.270;9.434;2023-10-09T06:52:50;9.90;;;8.32;;
16662;SDS011;8445;51.270;9.434;2023-10-09T06:55:23;11.45;;;8.35;;
16662;SDS011;8445;51.270;9.434;2023-10-09T06:58:02;12.43;;;8.30;;
16662;SDS011;8445;51.270;9.434;2023-10-09T07:00:40;9.68;;;8.02;;
16662;SDS011;8445;51.270;9.434;2023-10-09T07:03:26;11.52;;;8.13;;
16662;SDS011;8445;51.270;9.434;2023-10-09T07:06:08;11.07;;;8.18;;
16662;SDS011;8445;51.270;9.434;2023-10-09T07:08:57;11.27;;;8.05;;
16662;SDS011;8445;51.270;9.434;2023-10-09T07:11:32;13.50;;;8.80;;
16662;SDS011;8445;51.270;9.434;2023-10-09T07:14:06;15.57;;;8.38;;
16662;SDS011;8445;51.270;9.434;2023-10-09T07:16:55;15.30;;;10.43;;
16662;SDS011;8445;51.270;9.434;2023-10-09T07:19:29;10.43;;;8.27;;
16662;SDS011;8445;51.270;9.434;2023-10-09T07:22:02;15.85;;;8.73;;
16662;SDS011;8445;51.270;9.434;2023-10-09T07:24:29;9.93;;;8.65;;
16662;SDS011;8445;51.270;9.434;2023-10-09T07:27:22;11.02;;;8.35;;
16662;SDS011;8445;51.270;9.434;2023-10-09T07:30:08;12.48;;;8.90;;
16662;SDS011;8445;51.270;9.434;2023-10-09T07:32:58;16.98;;;11.43;;
16662;SDS011;8445;51.270;9.434;2023-10-09T07:35:35;17.27;;;11.75;;
16662;SDS011;8445;51.270;9.434;2023-10-09T07:38:19;15.38;;;10.40;;
16662;SDS011;8445;51.270;9.434;2023-10-09T07:40:53;11.82;;;9.55;;
16662;SDS011;8445;51.270;9.434;2023-10-09T07:43:28;11.05;;;9.63;;
16662;SDS011;8445;51.270;9.434;2023-10-09T07:46:13;11.88;;;8.48;;
16662;SDS011;8445;51.270;9.434;2023-10-09T07:49:02;16.85;;;8.63;;
16662;SDS011;8445;51.270;9.434;2023-10-09T07:51:37;12.88;;;8.38;;
16662;SDS011;8445;51.270;9.434;2023-10-09T07:54:08;11.43;;;8.00;;
16662;SDS011;8445;51.270;9.434;2023-10-09T07:56:43;11.02;;;8.85;;
16662;SDS011;8445;51.270;9.434;2023-10-09T07:59:10;9.85;;;8.25;;
16662;SDS011;8445;51.270;9.434;2023-10-09T08:01:41;11.88;;;8.70;;
16662;SDS011;8445;51.270;9.434;2023-10-09T08:04:39;8.93;;;7.43;;
16662;SDS011;8445;51.270;9.434;2023-10-09T08:07:15;9.38;;;7.93;;
16662;SDS011;8445;51.270;9.434;2023-10-09T08:09:48;10.38;;;7.60;;
16662;SDS011;8445;51.270;9.434;2023-10-09T08:12:22;9.25;;;7.93;;
16662;SDS011;8445;51.270;9.434;2023-10-09T08:15:07;10.18;;;8.00;;
16662;SDS011;8445;51.270;9.434;2023-10-09T08:20:50;11.63;;;8.32;;
16662;SDS011;8445;51.270;9.434;2023-10-09T08:23:23;13.93;;;8.13;;
16662;SDS011;8445;51.270;9.434;2023-10-09T08:26:18;11.30;;;8.02;;
16662;SDS011;8445;51.270;9.434;2023-10-09T08:28:55;9.27;;;8.27;;
16662;SDS011;8445;51.270;9.434;2023-10-09T08:31:40;12.60;;;8.60;;
16662;SDS011;8445;51.270;9.434;2023-10-09T08:34:12;10.48;;;8.10;;
16662;SDS011;8445;51.270;9.434;2023-10-09T08:37:00;10.40;;;8.52;;
16662;SDS011;8445;51.270;9.434;2023-10-09T08:39:39;10.07;;;8.00;;
16662;SDS011;8445;51.270;9.434;2023-10-09T08:42:05;11.88;;;8.20;;
16662;SDS011;8445;51.270;9.434;2023-10-09T08:44:33;9.50;;;7.43;;
16662;SDS011;8445;51.270;9.434;2023-10-09T08:47:03;9.18;;;7.82;;
16662;SDS011;8445;51.270;9.434;2023-10-09T08:49:30;14.25;;;7.43;;
16662;SDS011;8445;51.270;9.434;2023-10-09T08:51:58;10.88;;;8.35;;
16662;SDS011;8445;51.270;9.434;2023-10-09T08:54:28;9.38;;;7.80;;
16662;SDS011;8445;51.270;9.434;2023-10-09T08:56:58;11.13;;;8.23;;
16662;SDS011;8445;51.270;9.434;2023-10-09T08:59:24;9.68;;;8.60;;
16662;SDS011;8445;51.270;9.434;2023-10-09T09:01:52;10.57;;;7.78;;
16662;SDS011;8445;51.270;9.434;2023-10-09T09:04:37;11.75;;;8.55;;
16662;SDS011;8445;51.270;9.434;2023-10-09T09:07:06;10.75;;;8.40;;
16662;SDS011;8445;51.270;9.434;2023-10-09T09:09:55;10.07;;;8.70;;
16662;SDS011;8445;51.270;9.434;2023-10-09T09:12:49;11.02;;;8.50;;
16662;SDS011;8445;51.270;9.434;2023-10-09T09:15:35;11.45;;;9.07;;
16662;SDS011;8445;51.270;9.434;2023-10-09T09:18:05;11.30;;;8.07;;
16662;SDS011;8445;51.270;9.434;2023-10-09T09:20:37;11.70;;;8.30;;
16662;SDS011;8445;51.270;9.434;2023-10-09T09:23:09;10.73;;;7.53;;
16662;SDS011;8445;51.270;9.434;2023-10-09T09:25:41;16.02;;;8.70;;
16662;SDS011;8445;51.270;9.434;2023-10-09T09:28:23;10.50;;;8.45;;
16662;SDS011;8445;51.270;9.434;2023-10-09T09:30:52;12.60;;;8.50;;
16662;SDS011;8445;51.270;9.434;2023-10-09T09:33:20;11.57;;;8.75;;
16662;SDS011;8445;51.270;9.434;2023-10-09T09:35:56;11.60;;;8.32;;
16662;SDS011;8445;51.270;9.434;2023-10-09T09:38:26;12.15;;;9.10;;
16662;SDS011;8445;51.270;9.434;2023-10-09T09:41:15;10.82;;;8.05;;
16662;SDS011;8445;51.270;9.434;2023-10-09T09:43:53;14.93;;;10.93;;
16662;SDS011;8445;51.270;9.434;2023-10-09T09:46:27;9.60;;;8.10;;
16662;SDS011;8445;51.270;9.434;2023-10-09T09:49:02;10.68;;;9.35;;
16662;SDS011;8445;51.270;9.434;2023-10-09T09:51:42;9.75;;;8.38;;
16662;SDS011;8445;51.270;9.434;2023-10-09T09:54:12;13.90;;;8.05;;
16662;SDS011;8445;51.270;9.434;2023-10-09T09:56:43;10.68;;;8.10;;
16662;SDS011;8445;51.270;9.434;2023-10-09T09:59:17;18.23;;;8.55;;
16662;SDS011;8445;51.270;9.434;2023-10-09T10:01:50;12.95;;;7.85;;
16662;SDS011;8445;51.270;9.434;2023-10-09T10:04:31;12.80;;;7.88;;
16662;SDS011;8445;51.270;9.434;2023-10-09T10:07:01;10.68;;;8.48;;
16662;SDS011;8445;51.270;9.434;2023-10-09T10:12:07;9.35;;;8.15;;
16662;SDS011;8445;51.270;9.434;2023-10-09T10:14:54;12.73;;;8.27;;
16662;SDS011;8445;51.270;9.434;2023-10-09T10:17:27;10.50;;;8.75;;
16662;SDS011;8445;51.270;9.434;2023-10-09T10:22:29;12.93;;;9.02;;
16662;SDS011;8445;51.270;9.434;2023-10-09T10:24:58;9.27;;;7.68;;
16662;SDS011;8445;51.270;9.434;2023-10-09T10:27:28;9.07;;;7.40;;
16662;SDS011;8445;51.270;9.434;2023-10-09T10:35:18;10.98;;;8.00;;
16662;SDS011;8445;51.270;9.434;2023-10-09T10:37:58;9.07;;;7.65;;
16662;SDS011;8445;51.270;9.434;2023-10-09T10:40:30;16.08;;;8.65;;
16662;SDS011;8445;51.270;9.434;2023-10-09T10:43:18;10.07;;;7.82;;
16662;SDS011;8445;51.270;9.434;2023-10-09T10:46:02;10.90;;;8.63;;
16662;SDS011;8445;51.270;9.434;2023-10-09T10:48:50;10.57;;;8.85;;
16662;SDS011;8445;51.270;9.434;2023-10-09T10:51:37;9.13;;;7.97;;
16662;SDS011;8445;51.270;9.434;2023-10-09T10:54:04;8.68;;;7.55;;
16662;SDS011;8445;51.270;9.434;2023-10-09T10:56:49;13.82;;;8.07;;
16662;SDS011;8445;51.270;9.434;2023-10-09T10:59:16;9.32;;;7.43;;
16662;SDS011;8445;51.270;9.434;2023-10-09T11:01:51;11.80;;;7.88;;
16662;SDS011;8445;51.270;9.434;2023-10-09T11:04:22;11.10;;;7.68;;
16662;SDS011;8445;51.270;9.434;2023-10-09T11:06:53;11.93;;;7.90;;
16662;SDS011;8445;51.270;9.434;2023-10-09T11:12:30;8.45;;;7.47;;
16662;SDS011;8445;51.270;9.434;2023-10-09T11:15:35;14.15;;;7.30;;
16662;SDS011;8445;51.270;9.434;2023-10-09T11:18:13;9.02;;;7.75;;
16662;SDS011;8445;51.270;9.434;2023-10-09T11:20:50;12.13;;;8.15;;
16662;SDS011;8445;51.270;9.434;2023-10-09T11:23:29;14.02;;;8.32;;
16662;SDS011;8445;51.270;9.434;2023-10-09T11:26:00;13.85;;;8.13;;
16662;SDS011;8445;51.270;9.434;2023-10-09T11:31:40;10.80;;;8.25;;
16662;SDS011;8445;51.270;9.434;2023-10-09T11:34:19;11.35;;;7.63;;
16662;SDS011;8445;51.270;9.434;2023-10-09T11:37:13;10.00;;;7.53;;
16662;SDS011;8445;51.270;9.434;2023-10-09T11:39:58;9.23;;;7.60;;
16662;SDS011;8445;51.270;9.434;2023-10-09T11:42:48;10.43;;;7.80;;
16662;SDS011;8445;51.270;9.434;2023-10-09T11:45:24;12.65;;;7.55;;
16662;SDS011;8445;51.270;9.434;2023-10-09T11:48:16;12.32;;;8.70;;
16662;SDS011;8445;51.270;9.434;2023-10-09T11:50:51;11.02;;;7.75;;
16662;SDS011;8445;51.270;9.434;2023-10-09T11:53:20;11.38;;;7.63;;
16662;SDS011;8445;51.270;9.434;2023-10-09T11:55:50;9.73;;;7.55;;
16662;SDS011;8445;51.270;9.434;2023-10-09T11:58:18;13.52;;;8.55;;
16662;SDS011;8445;51.270;9.434;2023-10-09T12:00:52;10.35;;;7.68;;
16662;SDS011;8445;51.270;9.434;2023-10-09T12:03:41;10.35;;;7.38;;
16662;SDS011;8445;51.270;9.434;2023-10-09T12:06:14;10.10;;;8.20;;
16662;SDS011;8445;51.270;9.434;2023-10-09T12:08:44;9.43;;;7.43;;
16662;SDS011;8445;51.270;9.434;2023-10-09T12:11:15;11.13;;;7.85;;
16662;SDS011;8445;51.270;9.434;2023-10-09T12:13:50;8.85;;;7.95;;
16662;SDS011;8445;51.270;9.434;2023-10-09T12:16:24;10.88;;;8.25;;
16662;SDS011;8445;51.270;9.434;2023-10-09T12:18:56;9.52;;;7.88;;
16662;SDS011;8445;51.270;9.434;2023-10-09T12:21:23;9.18;;;7.65;;
16662;SDS011;8445;51.270;9.434;2023-10-09T12:23:49;9.77;;;8.02;;
16662;SDS011;8445;51.270;9.434;2023-10-09T12:26:15;9.40;;;7.40;;
16662;SDS011;8445;51.270;9.434;2023-10-09T12:28:42;8.85;;;7.75;;
16662;SDS011;8445;51.270;9.434;2023-10-09T12:31:13;8.13;;;7.32;;
16662;SDS011;8445;51.270;9.434;2023-10-09T12:33:46;22.15;;;16.02;;
16662;SDS011;8445;51.270;9.434;2023-10-09T12:36:12;11.68;;;9.02;;
16662;SDS011;8445;51.270;9.434;2023-10-09T12:38:48;13.10;;;8.25;;
16662;SDS011;8445;51.270;9.434;2023-10-09T12:41:19;12.15;;;8.93;;
16662;SDS011;8445;51.270;9.434;2023-10-09T12:43:53;10.55;;;8.30;;
16662;SDS011;8445;51.270;9.434;2023-10-09T12:46:20;11.05;;;7.88;;
16662;SDS011;8445;51.270;9.434;2023-10-09T12:48:53;10.18;;;7.53;;
16662;SDS011;8445;51.270;9.434;2023-10-09T12:51:21;11.65;;;7.88;;
16662;SDS011;8445;51.270;9.434;2023-10-09T12:53:55;8.38;;;7.30;;
16662;SDS011;8445;51.270;9.434;2023-10-09T12:56:26;8.38;;;7.57;;
16662;SDS011;8445;51.270;9.434;2023-10-09T12:59:02;8.68;;;7.47;;
16662;SDS011;8445;51.270;9.434;2023-10-09T13:01:32;8.77;;;7.00;;
16662;SDS011;8445;51.270;9.434;2023-10-09T13:04:08;8.85;;;7.55;;
16662;SDS011;8445;51.270;9.434;2023-10-09T13:06:42;10.60;;;7.22;;
16662;SDS011;8445;51.270;9.434;2023-10-09T13:09:19;10.45;;;6.88;;
16662;SDS011;8445;51.270;9.434;2023-10-09T13:11:59;10.82;;;7.35;;
16662;SDS011;8445;51.270;9.434;2023-10-09T13:14:29;11.98;;;7.70;;
16662;SDS011;8445;51.270;9.434;2023-10-09T13:16:59;12.40;;;8.60;;
16662;SDS011;8445;51.270;9.434;2023-10-09T13:19:25;9.90;;;7.40;;
16662;SDS011;8445;51.270;9.434;2023-10-09T13:21:51;9.40;;;7.07;;
16662;SDS011;8445;51.270;9.434;2023-10-09T13:24:17;10.68;;;7.70;;
16662;SDS011;8445;51.270;9.434;2023-10-09T13:26:49;14.40;;;7.05;;
16662;SDS011;8445;51.270;9.434;2023-10-09T13:29:18;14.70;;;7.90;;
16662;SDS011;8445;51.270;9.434;2023-10-09T13:31:49;11.02;;;7.63;;
16662;SDS011;8445;51.270;9.434;2023-10-09T13:34:22;10.00;;;7.40;;
16662;SDS011;8445;51.270;9.434;2023-10-09T13:36:53;14.88;;;8.60;;
16662;SDS011;8445;51.270;9.434;2023-10-09T13:39:20;10.18;;;6.38;;
16662;SDS011;8445;51.270;9.434;2023-10-09T13:41:59;9.20;;;5.88;;
16662;SDS011;8445;51.270;9.434;2023-10-09T13:44:30;11.20;;;6.35;;
16662;SDS011;8445;51.270;9.434;2023-10-09T13:46:58;6.93;;;6.22;;
16662;SDS011;8445;51.270;9.434;2023-10-09T13:49:26;8.68;;;5.85;;
16662;SDS011;8445;51.270;9.434;2023-10-09T13:51:55;8.02;;;5.78;;
16662;SDS011;8445;51.270;9.434;2023-10-09T13:54:22;12.65;;;6.00;;
16662;SDS011;8445;51.270;9.434;2023-10-09T13:57:04;8.57;;;5.60;;
16662;SDS011;8445;51.270;9.434;2023-10-09T13:59:33;10.52;;;5.80;;
16662;SDS011;8445;51.270;9.434;2023-10-09T14:02:08;11.75;;;6.05;;
16662;SDS011;8445;51.270;9.434;2023-10-09T14:04:34;13.93;;;6.43;;
16662;SDS011;8445;51.270;9.434;2023-10-09T14:07:01;9.50;;;6.13;;
16662;SDS011;8445;51.270;9.434;2023-10-09T14:09:30;7.72;;;6.30;;
16662;SDS011;8445;51.270;9.434;2023-10-09T14:11:57;8.77;;;5.72;;
16662;SDS011;8445;51.270;9.434;2023-10-09T14:14:38;7.85;;;6.07;;
16662;SDS011;8445;51.270;9.434;2023-10-09T14:17:15;9.27;;;6.07;;
16662;SDS011;8445;51.270;9.434;2023-10-09T14:19:49;8.27;;;5.57;;
16662;SDS011;8445;51.270;9.434;2023-10-09T14:22:17;10.38;;;5.80;;
16662;SDS011;8445;51.270;9.434;2023-10-09T14:24:45;12.32;;;5.63;;
16662;SDS011;8445;51.270;9.434;2023-10-09T14:27:13;7.82;;;5.22;;
16662;SDS011;8445;51.270;9.434;2023-10-09T14:29:47;14.80;;;5.78;;
16662;SDS011;8445;51.270;9.434;2023-10-09T14:32:13;9.50;;;5.40;;
16662;SDS011;8445;51.270;9.434;2023-10-09T14:34:41;10.93;;;6.32;;
16662;SDS011;8445;51.270;9.434;2023-10-09T14:37:18;10.85;;;5.93;;
16662;SDS011;8445;51.270;9.434;2023-10-09T14:39:44;8.10;;;5.70;;
16662;SDS011;8445;51.270;9.434;2023-10-09T14:42:15;9.38;;;5.65;;
16662;SDS011;8445;51.270;9.434;2023-10-09T14:44:41;11.27;;;5.93;;
16662;SDS011;8445;51.270;9.434;2023-10-09T14:47:10;9.20;;;6.20;;
16662;SDS011;8445;51.270;9.434;2023-10-09T14:49:39;10.02;;;5.90;;
16662;SDS011;8445;51.270;9.434;2023-10-09T14:52:12;12.45;;;5.88;;
16662;SDS011;8445;51.270;9.434;2023-10-09T14:54:44;12.70;;;6.10;;
16662;SDS011;8445;51.270;9.434;2023-10-09T14:57:10;11.15;;;6.32;;
16662;SDS011;8445;51.270;9.434;2023-10-09T14:59:37;12.93;;;6.35;;
16662;SDS011;8445;51.270;9.434;2023-10-09T15:02:05;11.85;;;6.25;;
16662;SDS011;8445;51.270;9.434;2023-10-09T15:04:31;14.00;;;6.30;;
16662;SDS011;8445;51.270;9.434;2023-10-09T15:07:01;9.15;;;6.05;;
16662;SDS011;8445;51.270;9.434;2023-10-09T15:09:27;11.43;;;6.13;;
16662;SDS011;8445;51.270;9.434;2023-10-09T15:11:56;6.25;;;5.63;;
16662;SDS011;8445;51.270;9.434;2023-10-09T15:14:23;8.63;;;6.25;;
16662;SDS011;8445;51.270;9.434;2023-10-09T15:16:49;13.63;;;6.38;;
16662;SDS011;8445;51.270;9.434;2023-10-09T15:19:15;8.32;;;6.60;;
16662;SDS011;8445;51.270;9.434;2023-10-09T15:21:45;9.70;;;6.57;;
16662;SDS011;8445;51.270;9.434;2023-10-09T15:24:16;9.68;;;6.60;;
16662;SDS011;8445;51.270;9.434;2023-10-09T15:26:46;14.65;;;6.25;;
16662;SDS011;8445;51.270;9.434;2023-10-09T15:29:19;7.90;;;6.43;;
16662;SDS011;8445;51.270;9.434;2023-10-09T15:31:54;6.97;;;6.28;;
16662;SDS011;8445;51.270;9.434;2023-10-09T15:34:21;7.72;;;6.38;;
16662;SDS011;8445;51.270;9.434;2023-10-09T15:36:48;12.27;;;6.28;;
16662;SDS011;8445;51.270;9.434;2023-10-09T15:39:14;10.10;;;6.28;;
16662;SDS011;8445;51.270;9.434;2023-10-09T15:41:44;10.13;;;6.85;;
16662;SDS011;8445;51.270;9.434;2023-10-09T15:44:11;10.85;;;7.63;;
16662;SDS011;8445;51.270;9.434;2023-10-09T15:46:41;9.88;;;6.82;;
16662;SDS011;8445;51.270;9.434;2023-10-09T15:49:13;11.43;;;6.75;;
16662;SDS011;8445;51.270;9.434;2023-10-09T15:51:40;10.68;;;6.82;;
16662;SDS011;8445;51.270;9.434;2023-10-09T15:54:09;11.35;;;7.00;;
16662;SDS011;8445;51.270;9.434;2023-10-09T15:56:36;12.05;;;7.40;;
16662;SDS011;8445;51.270;9.434;2023-10-09T15:59:07;11.30;;;6.95;;
16662;SDS011;8445;51.270;9.434;2023-10-09T16:01:33;8.02;;;7.07;;
16662;SDS011;8445;51.270;9.434;2023-10-09T16:04:00;9.38;;;7.47;;